Time;durP1;ratioP1;P1;durP2;ratioP2;P2;SDS_P1;SDS_P2;PMS_P1;PMS_P2;Temp;Humidity;BMP_temperature;BMP_pressure;BME280_temperature;BME280_humidity;BME280_pressure;Samples;Min_cycle;Max_cycle;Signal;HPM_P1;HPM_P2
2022/05/26 00:01:05;;;;;;;6.28;2.25;;;13.00;99.90;;;;;;5056389;28;20484;-78
2022/05/26 00:03:37;;;;;;;2.53;1.85;;;13.00;99.90;;;;;;5056204;28;20052;-78
2022/05/26 00:06:05;;;;;;;3.38;1.98;;;13.00;99.90;;;;;;5056243;28;20060;-77
2022/05/26 00:08:31;;;;;;;5.60;2.38;;;13.00;99.90;;;;;;5055918;28;20052;-78
2022/05/26 00:10:57;;;;;;;3.20;2.10;;;13.00;99.90;;;;;;5056343;28;20082;-78
2022/05/26 00:13:23;;;;;;;3.10;2.15;;;13.00;99.90;;;;;;5056116;28;20127;-78
2022/05/26 00:15:49;;;;;;;2.75;1.85;;;13.00;99.90;;;;;;5056418;28;20121;-77
2022/05/26 00:18:15;;;;;;;2.85;1.90;;;13.00;99.90;;;;;;5056502;28;20871;-78
2022/05/26 00:20:41;;;;;;;2.47;1.60;;;13.00;99.90;;;;;;5039630;28;20124;-78
2022/05/26 00:23:07;;;;;;;3.88;1.77;;;12.80;99.90;;;;;;5039219;28;20044;-78
2022/05/26 00:25:32;;;;;;;3.90;1.88;;;13.00;99.90;;;;;;5055970;28;20059;-78
2022/05/26 00:27:58;;;;;;;3.72;1.50;;;13.00;99.90;;;;;;5056007;28;20492;-78
2022/05/26 00:30:24;;;;;;;3.03;1.75;;;13.10;99.90;;;;;;5056423;28;20100;-78
2022/05/26 00:32:49;;;;;;;2.72;1.45;;;13.10;99.90;;;;;;5055769;28;20044;-79
2022/05/26 00:35:16;;;;;;;2.45;1.23;;;13.10;99.90;;;;;;5055811;28;20126;-77
2022/05/26 00:37:42;;;;;;;1.33;1.10;;;13.10;99.90;;;;;;5055762;28;20080;-78
2022/05/26 00:40:09;;;;;;;1.38;1.13;;;13.10;99.90;;;;;;5055784;28;20051;-78
2022/05/26 00:42:35;;;;;;;1.50;1.13;;;13.10;99.90;;;;;;5056619;28;20385;-78
2022/05/26 00:45:00;;;;;;;4.22;1.77;;;13.40;99.90;;;;;;5040088;28;20143;-78
2022/05/26 00:47:30;;;;;;;2.90;1.35;;;13.20;99.90;;;;;;5055710;28;20076;-78
2022/05/26 00:50:04;;;;;;;2.25;1.45;;;13.10;99.90;;;;;;5055569;28;20147;-78
2022/05/26 00:52:39;;;;;;;2.80;2.08;;;13.30;99.90;;;;;;5059118;28;20040;-78
2022/05/26 00:55:26;;;;;;;3.40;2.00;;;;;;;;;;5059606;28;20123;-78
2022/05/26 00:58:04;;;;;;;3.55;2.25;;;13.20;99.90;;;;;;5043370;28;20040;-78
2022/05/26 01:00:34;;;;;;;6.78;2.15;;;13.20;99.90;;;;;;5059610;28;20406;-78
2022/05/26 01:02:59;;;;;;;5.50;2.83;;;13.20;99.90;;;;;;5059727;28;20388;-78
2022/05/26 01:05:30;;;;;;;3.15;2.30;;;13.20;99.90;;;;;;5059200;28;20040;-78
2022/05/26 01:07:57;;;;;;;6.82;2.95;;;13.20;99.90;;;;;;5059728;28;20032;-78
2022/05/26 01:10:23;;;;;;;5.45;2.97;;;13.20;99.90;;;;;;5059469;28;20041;-78
2022/05/26 01:12:49;;;;;;;5.45;2.85;;;13.30;99.90;;;;;;5059347;28;20044;-78
2022/05/26 01:15:22;;;;;;;5.28;2.78;;;13.30;99.90;;;;;;5058865;28;20051;-78
2022/05/26 01:18:06;;;;;;;7.38;3.78;;;13.30;99.90;;;;;;5042430;28;20053;-78
2022/05/26 01:21:07;;;;;;;5.03;3.17;;;13.30;99.90;;;;;;5059451;28;20036;-78
2022/05/26 01:23:57;;;;;;;6.53;2.88;;;13.30;99.90;;;;;;5058908;28;20048;-78
2022/05/26 01:26:41;;;;;;;7.13;3.80;;;13.40;99.90;;;;;;5058690;28;20123;-77
2022/05/26 01:29:22;;;;;;;4.93;3.00;;;13.40;99.90;;;;;;5058603;28;20040;-77
2022/05/26 01:32:18;;;;;;;4.85;3.15;;;13.40;99.90;;;;;;5058535;28;20040;-77
2022/05/26 01:35:14;;;;;;;6.22;3.50;;;13.40;99.90;;;;;;5075053;28;20385;-78
2022/05/26 01:38:15;;;;;;;8.00;3.47;;;13.40;99.90;;;;;;5058473;28;20040;-78
2022/05/26 01:40:46;;;;;;;;;;;13.50;99.90;;;;;;5042328;28;20123;-78
2022/05/26 01:43:18;;;;;;;8.63;2.95;;;13.50;99.90;;;;;;5058521;28;19942;-77
2022/05/26 01:46:06;;;;;;;8.48;3.80;;;13.40;99.90;;;;;;5058096;28;20083;-78
2022/05/26 01:48:37;;;;;;;5.90;3.33;;;13.40;99.90;;;;;;5075261;28;20044;-78
2022/05/26 01:51:20;;;;;;;8.65;3.40;;;13.40;99.90;;;;;;5058071;28;20044;-78
2022/05/26 01:54:06;;;;;;;8.15;3.65;;;13.40;99.90;;;;;;5058810;28;20446;-78
2022/05/26 01:56:55;;;;;;;5.30;2.70;;;13.40;99.90;;;;;;5057751;28;20147;-78
2022/05/26 01:59:29;;;;;;;9.48;3.95;;;13.30;99.90;;;;;;5057921;28;20051;-78
2022/05/26 02:02:04;;;;;;;7.68;3.30;;;13.30;99.90;;;;;;5057336;28;20495;-78
2022/05/26 02:04:36;;;;;;;7.15;2.33;;;13.30;99.90;;;;;;5058079;28;20037;-78
2022/05/26 02:07:19;;;;;;;8.68;3.15;;;13.30;99.90;;;;;;5058004;28;20037;-78
2022/05/26 02:09:45;;;;;;;5.43;3.13;;;13.30;99.90;;;;;;5057811;28;20047;-77
2022/05/26 02:12:24;;;;;;;7.57;3.20;;;13.30;99.90;;;;;;5057631;28;20040;-77
2022/05/26 02:15:04;;;;;;;7.88;2.97;;;13.30;99.90;;;;;;5057823;28;20036;-78
2022/05/26 02:17:34;;;;;;;6.22;2.88;;;13.30;99.90;;;;;;5057300;28;20047;-78
2022/05/26 02:20:30;;;;;;;5.57;2.47;;;13.30;99.90;;;;;;5041082;28;20373;-78
2022/05/26 02:23:08;;;;;;;7.55;2.72;;;13.30;99.90;;;;;;5057396;28;20102;-77
2022/05/26 02:25:35;;;;;;;7.57;3.00;;;13.30;99.90;;;;;;5057568;28;20174;-77
2022/05/26 02:28:00;;;;;;;6.78;3.13;;;13.40;99.90;;;;;;5057954;28;20397;-77
2022/05/26 02:30:35;;;;;;;7.00;2.92;;;13.30;99.90;;;;;;5057627;28;20149;-77
2022/05/26 02:33:03;;;;;;;6.60;3.03;;;13.40;99.90;;;;;;5041041;28;20511;-78
2022/05/26 02:35:33;;;;;;;7.90;2.95;;;13.40;99.90;;;;;;5057253;28;20040;-77
2022/05/26 02:38:08;;;;;;;4.00;2.20;;;13.40;99.90;;;;;;5057231;28;20174;-78
2022/05/26 02:40:34;;;;;;;7.15;3.08;;;13.40;99.90;;;;;;5057388;28;20045;-78
2022/05/26 02:43:05;;;;;;;6.82;3.10;;;13.40;99.90;;;;;;5057351;28;20200;-78
2022/05/26 02:45:49;;;;;;;6.70;2.80;;;13.40;99.90;;;;;;5057452;28;20074;-78
2022/05/26 02:48:49;;;;;;;11.25;2.42;;;13.40;99.90;;;;;;5057544;28;20127;-78
2022/05/26 02:51:28;;;;;;;6.43;2.05;;;13.40;99.90;;;;;;5057307;28;20613;-77
2022/05/26 02:54:14;;;;;;;4.07;2.28;;;13.50;99.90;;;;;;5057432;28;20127;-77
2022/05/26 02:57:00;;;;;;;7.30;2.97;;;13.40;99.90;;;;;;5073769;28;20040;-78
2022/05/26 02:59:47;;;;;;;10.35;2.40;;;13.40;99.90;;;;;;5073610;28;20127;-77
2022/05/26 03:02:25;;;;;;;10.40;3.15;;;13.40;99.90;;;;;;5057454;28;20498;-77
2022/05/26 03:05:02;;;;;;;3.90;2.38;;;13.40;99.90;;;;;;5057644;28;20476;-77
2022/05/26 03:07:31;;;;;;;9.40;2.05;;;13.40;99.90;;;;;;5057417;28;20094;-77
2022/05/26 03:09:57;;;;;;;11.70;3.10;;;13.40;99.90;;;;;;5057327;28;20522;-77
2022/05/26 03:12:28;;;;;;;5.60;2.20;;;13.40;99.90;;;;;;5057137;28;20040;-78
2022/05/26 03:14:54;;;;;;;7.63;2.38;;;13.40;99.90;;;;;;5073333;28;20557;-78
2022/05/26 03:17:21;;;;;;;6.82;3.00;;;13.40;99.90;;;;;;5056697;28;20044;-78
2022/05/26 03:19:46;;;;;;;6.40;2.53;;;13.40;99.90;;;;;;5056759;28;20039;-79
2022/05/26 03:22:12;;;;;;;7.57;2.05;;;13.40;99.90;;;;;;5057158;28;20036;-78
2022/05/26 03:24:38;;;;;;;7.97;2.35;;;13.40;99.90;;;;;;5056406;28;20056;-78
2022/05/26 03:27:05;;;;;;;5.60;2.17;;;13.40;99.90;;;;;;5056880;28;20033;-78
2022/05/26 03:29:30;;;;;;;5.53;1.92;;;13.40;99.90;;;;;;5072959;28;20102;-78
2022/05/26 03:31:56;;;;;;;8.02;2.17;;;13.40;99.90;;;;;;5039644;28;20087;-78
2022/05/26 03:42:37;;;;;;;6.30;2.47;;;13.30;99.90;;;;;;5056433;28;20097;-78
2022/05/26 03:45:05;;;;;;;7.68;1.95;;;13.30;99.90;;;;;;5056258;28;20403;-78
2022/05/26 03:47:31;;;;;;;8.35;1.85;;;13.30;99.90;;;;;;5056426;28;20040;-78
2022/05/26 03:49:57;;;;;;;9.57;2.05;;;13.30;99.90;;;;;;5056242;28;20244;-78
2022/05/26 03:52:23;;;;;;;8.18;1.23;;;13.30;99.90;;;;;;5023466;28;20613;-78
2022/05/26 03:54:49;;;;;;;4.95;1.63;;;13.30;99.90;;;;;;5056152;28;20098;-78
2022/05/26 03:57:26;;;;;;;3.97;2.00;;;13.30;99.90;;;;;;5056659;28;20517;-78
2022/05/26 03:59:51;;;;;;;5.93;1.80;;;13.20;99.90;;;;;;5039535;28;20040;-78
2022/05/26 04:02:17;;;;;;;7.45;1.90;;;13.20;99.90;;;;;;5056320;28;20047;-77
2022/05/26 04:04:43;;;;;;;6.57;1.50;;;13.20;99.90;;;;;;5056014;28;20130;-78
2022/05/26 04:07:09;;;;;;;5.07;1.38;;;13.20;99.90;;;;;;5039535;28;20127;-78
2022/05/26 04:09:34;;;;;;;5.05;1.58;;;13.20;99.90;;;;;;5056094;28;20044;-78
2022/05/26 04:12:00;;;;;;;7.38;1.98;;;13.10;99.90;;;;;;5055974;28;20047;-78
2022/05/26 04:14:26;;;;;;;2.63;1.42;;;13.10;99.90;;;;;;5023451;28;20396;-78
2022/05/26 04:16:51;;;;;;;6.07;1.75;;;13.10;99.90;;;;;;5055728;28;20040;-78
2022/05/26 04:19:17;;;;;;;3.67;1.92;;;13.20;99.90;;;;;;5038394;28;20416;-78
2022/05/26 04:24:27;;;;;;;8.48;1.08;;;13.20;99.90;;;;;;5054995;28;20170;-77
2022/05/26 04:26:53;;;;;;;4.18;1.55;;;13.30;99.90;;;;;;5054326;28;20049;-77
2022/05/26 04:29:23;;;;;;;3.60;1.20;;;13.20;99.90;;;;;;5054934;28;20545;-77
2022/05/26 04:31:50;;;;;;;4.03;1.23;;;13.20;99.90;;;;;;5055000;28;20048;-77
2022/05/26 04:34:16;;;;;;;13.20;1.83;;;13.20;99.90;;;;;;5055006;28;20051;-77
2022/05/26 04:36:42;;;;;;;4.72;1.40;;;13.20;99.90;;;;;;5055295;28;20076;-77
2022/05/26 04:39:08;;;;;;;3.08;1.50;;;13.20;99.90;;;;;;5038733;28;20491;-78
2022/05/26 04:41:34;;;;;;;6.55;1.80;;;13.20;99.90;;;;;;5055629;28;20041;-78
2022/05/26 04:43:59;;;;;;;6.43;1.48;;;13.40;99.90;;;;;;5055418;28;20048;-78
2022/05/26 04:46:25;;;;;;;5.63;1.67;;;13.20;99.90;;;;;;5055128;28;20478;-78
2022/05/26 04:48:51;;;;;;;1.95;1.30;;;13.30;99.90;;;;;;5055246;28;20048;-78
2022/05/26 04:51:17;;;;;;;2.67;1.35;;;13.20;99.90;;;;;;5055343;28;20048;-77
2022/05/26 04:53:43;;;;;;;11.13;2.25;;;13.30;99.90;;;;;;5055290;28;20429;-78
2022/05/26 04:56:09;;;;;;;3.45;1.08;;;13.30;99.90;;;;;;5055680;28;20044;-78
2022/05/26 04:58:34;;;;;;;3.15;1.20;;;13.40;99.90;;;;;;5055167;28;20051;-78
2022/05/26 05:01:00;;;;;;;4.20;1.55;;;;;;;;;;5055002;28;20033;-78
2022/05/26 05:03:26;;;;;;;3.10;1.10;;;;;;;;;;5054839;28;20127;-78
2022/05/26 05:05:52;;;;;;;4.28;1.65;;;;;;;;;;5071477;28;20054;-78
2022/05/26 05:08:18;;;;;;;3.17;1.25;;;;;;;;;;5071421;28;20051;-78
2022/05/26 05:10:44;;;;;;;10.20;1.25;;;13.50;99.90;;;;;;5054578;28;20123;-78
2022/05/26 05:13:10;;;;;;;4.28;1.00;;;13.70;99.90;;;;;;5038613;28;20579;-78
2022/05/26 05:15:45;;;;;;;3.97;1.30;;;13.70;99.90;;;;;;5038560;28;20058;-84
2022/05/26 05:18:11;;;;;;;4.50;1.25;;;13.80;99.90;;;;;;5054635;28;20043;-83
2022/05/26 05:20:38;;;;;;;10.45;1.33;;;13.70;99.90;;;;;;5038014;28;20048;-84
2022/05/26 05:23:08;;;;;;;2.22;0.93;;;13.80;99.90;;;;;;5054672;28;20039;-81
2022/05/26 05:25:41;;;;;;;4.60;1.13;;;14.00;99.90;;;;;;5054477;28;20048;-83
2022/05/26 05:28:17;;;;;;;4.15;1.10;;;14.00;99.90;;;;;;5054482;28;20076;-82
2022/05/26 05:30:58;;;;;;;1.15;0.63;;;14.10;99.90;;;;;;5054481;28;20041;-82
2022/05/26 05:33:39;;;;;;;3.10;0.93;;;14.00;99.90;;;;;;5054340;28;20044;-82
2022/05/26 05:36:22;;;;;;;2.17;0.82;;;14.10;99.90;;;;;;5054725;28;20044;-82
2022/05/26 05:38:48;;;;;;;2.38;0.85;;;14.20;99.90;;;;;;5058113;28;20496;-82
2022/05/26 05:41:14;;;;;;;2.35;0.90;;;14.20;99.90;;;;;;5058266;28;20039;-82
2022/05/26 05:43:41;;;;;;;6.32;1.73;;;14.20;99.90;;;;;;5041611;28;20040;-83
2022/05/26 05:46:08;;;;;;;1.55;0.95;;;14.20;99.90;;;;;;5058032;28;20040;-83
2022/05/26 05:48:34;;;;;;;0.70;0.65;;;14.30;99.90;;;;;;5057935;28;20043;-83
2022/05/26 05:51:01;;;;;;;1.65;0.55;;;14.50;99.90;;;;;;5041371;28;20041;-82
2022/05/26 05:53:27;;;;;;;4.47;0.90;;;14.30;99.90;;;;;;5024926;28;20044;-83
2022/05/26 05:55:53;;;;;;;4.07;0.82;;;14.30;99.90;;;;;;5057897;28;20519;-82
2022/05/26 05:58:19;;;;;;;1.50;0.60;;;14.40;99.90;;;;;;5057715;28;20087;-82
2022/05/26 06:00:45;;;;;;;1.58;0.60;;;14.40;99.90;;;;;;5057590;28;20036;-82
2022/05/26 06:03:11;;;;;;;4.22;0.70;;;14.50;99.90;;;;;;5058022;28;20480;-82
2022/05/26 06:05:37;;;;;;;1.13;0.52;;;14.40;99.90;;;;;;5057710;28;20204;-82
2022/05/26 06:08:04;;;;;;;0.93;0.60;;;14.50;99.90;;;;;;5057964;28;20504;-82
2022/05/26 06:10:31;;;;;;;1.85;0.45;;;14.50;99.90;;;;;;5041184;28;20511;-82
2022/05/26 06:12:57;;;;;;;1.35;0.80;;;14.40;99.90;;;;;;5057484;28;20084;-83
2022/05/26 06:15:23;;;;;;;4.25;0.63;;;14.40;99.90;;;;;;5059348;28;20041;-82
2022/05/26 06:17:49;;;;;;;4.00;0.82;;;14.30;99.90;;;;;;5040828;28;20051;-82
2022/05/26 06:20:15;;;;;;;1.90;0.75;;;14.20;99.90;;;;;;5057311;28;20041;-82
2022/05/26 06:22:43;;;;;;;2.38;0.70;;;14.40;99.90;;;;;;5057325;28;20040;-82
2022/05/26 06:25:09;;;;;;;1.95;0.70;;;14.50;99.90;;;;;;5056925;28;20059;-82
2022/05/26 06:30:21;;;;;;;2.42;0.60;;;14.80;99.90;;;;;;5056997;28;20047;-82
2022/05/26 06:38:29;;;;;;;3.17;0.77;;;15.20;99.90;;;;;;5056884;28;20052;-82
2022/05/26 06:40:54;;;;;;;1.42;0.60;;;15.30;99.90;;;;;;5057166;28;20033;-82
2022/05/26 06:43:20;;;;;;;0.50;0.40;;;15.50;99.90;;;;;;5056862;28;20480;-82
2022/05/26 06:45:48;;;;;;;4.30;0.63;;;15.50;99.90;;;;;;5040155;28;20041;-82
2022/05/26 06:48:15;;;;;;;1.92;0.70;;;15.70;99.90;;;;;;5056487;28;20067;-82
2022/05/26 06:50:41;;;;;;;1.98;0.63;;;15.60;99.90;;;;;;5057190;28;20080;-82
2022/05/26 06:53:08;;;;;;;0.40;0.30;;;15.60;99.90;;;;;;5056765;28;20113;-83
2022/05/26 06:55:34;;;;;;;2.33;0.47;;;15.70;99.90;;;;;;5057137;28;20046;-79
2022/05/26 06:58:00;;;;;;;0.55;0.47;;;15.50;99.90;;;;;;5058566;28;20044;-84
2022/05/26 07:00:26;;;;;;;0.90;0.63;;;15.50;99.90;;;;;;5057337;28;20499;-83
2022/05/26 07:02:52;;;;;;;1.27;0.40;;;15.40;99.90;;;;;;5056755;28;20146;-83
2022/05/26 07:05:19;;;;;;;0.63;0.50;;;15.30;99.90;;;;;;5039926;28;20041;-77
2022/05/26 07:07:44;;;;;;;1.45;0.47;;;15.30;99.90;;;;;;5072913;28;20079;-76
2022/05/26 07:10:13;;;;;;;3.03;0.60;;;15.20;99.90;;;;;;5056829;28;20040;-81
2022/05/26 07:12:40;;;;;;;4.22;0.52;;;15.10;99.90;;;;;;5056963;28;20499;-79
2022/05/26 07:15:08;;;;;;;1.02;0.52;;;15.30;99.90;;;;;;5056746;28;20041;-83
2022/05/26 07:17:36;;;;;;;2.00;0.80;;;15.20;99.90;;;;;;5056324;28;20047;-86
2022/05/26 07:20:04;;;;;;;1.48;0.50;;;15.20;99.90;;;;;;5040313;28;20127;-84
2022/05/26 07:22:31;;;;;;;0.98;0.60;;;15.40;99.90;;;;;;5056610;28;20123;-82
2022/05/26 07:24:58;;;;;;;0.57;0.52;;;15.40;99.90;;;;;;5023222;28;20052;-83
2022/05/26 07:27:26;;;;;;;0.32;0.32;;;15.70;99.90;;;;;;5039844;28;20041;-81
2022/05/26 07:29:53;;;;;;;0.30;0.30;;;15.90;99.90;;;;;;5040027;28;20032;-83
2022/05/26 07:32:19;;;;;;;0.30;0.30;;;16.00;99.90;;;;;;5055932;28;20094;-83
2022/05/26 07:34:45;;;;;;;1.67;0.50;;;15.70;99.90;;;;;;5056263;28;20121;-81
2022/05/26 07:42:39;;;;;;;0.80;0.43;;;16.70;99.90;;;;;;5055658;28;20101;-82
2022/05/26 07:45:09;;;;;;;0.85;0.50;;;16.30;99.90;;;;;;5039411;28;20036;-83
2022/05/26 07:47:36;;;;;;;3.78;0.60;;;16.40;99.90;;;;;;5056180;28;20040;-83
2022/05/26 07:50:04;;;;;;;0.90;0.52;;;16.60;99.90;;;;;;5039185;28;20037;-83
2022/05/26 07:52:29;;;;;;;0.95;0.40;;;16.80;99.90;;;;;;5055938;28;20492;-83
2022/05/26 07:54:55;;;;;;;0.45;0.30;;;16.90;99.90;;;;;;5055835;28;20136;-74
2022/05/26 07:57:24;;;;;;;1.20;0.30;;;16.80;99.90;;;;;;5055417;28;20045;-86
2022/05/26 07:59:50;;;;;;;1.08;0.40;;;16.90;99.90;;;;;;5054898;28;20484;-83
2022/05/26 08:02:17;;;;;;;0.43;0.30;;;17.00;99.90;;;;;;5055114;28;20041;-78
2022/05/26 08:04:44;;;;;;;1.85;0.52;;;17.00;99.90;;;;;;5072369;28;20396;-84
2022/05/26 08:07:10;;;;;;;2.88;0.57;;;17.10;99.90;;;;;;5055342;28;20125;-84
2022/05/26 08:09:40;;;;;;;2.55;0.45;;;17.20;99.90;;;;;;5055754;28;20048;-83
2022/05/26 08:12:15;;;;;;;1.27;0.60;;;17.30;99.90;;;;;;5055350;28;20040;-85
2022/05/26 08:14:43;;;;;;;0.65;0.40;;;17.20;99.90;;;;;;5055708;28;20484;-80
2022/05/26 08:17:14;;;;;;;0.20;0.20;;;17.20;99.90;;;;;;5038792;28;20047;-75
2022/05/26 08:19:41;;;;;;;0.82;0.40;;;17.20;99.90;;;;;;5054905;28;20388;-76
2022/05/26 08:22:06;;;;;;;2.80;0.70;;;17.30;99.90;;;;;;5055192;28;20132;-75
2022/05/26 08:24:33;;;;;;;0.30;0.28;;;17.30;99.90;;;;;;5021617;28;20092;-75
2022/05/26 08:26:59;;;;;;;0.30;0.30;;;17.10;99.90;;;;;;5054868;28;20037;-75
2022/05/26 08:29:26;;;;;;;2.00;0.40;;;17.10;99.90;;;;;;5055117;28;20044;-82
2022/05/26 08:31:54;;;;;;;0.27;0.27;;;17.10;99.90;;;;;;5055866;28;20083;-75
2022/05/26 08:34:20;;;;;;;0.30;0.28;;;17.20;99.90;;;;;;5054912;28;20286;-75
2022/05/26 08:36:46;;;;;;;0.73;0.45;;;17.20;99.90;;;;;;5055073;28;20381;-79
2022/05/26 08:39:13;;;;;;;0.85;0.38;;;17.20;99.90;;;;;;5054838;28;20110;-78
2022/05/26 08:41:46;;;;;;;0.95;0.40;;;17.20;99.90;;;;;;5054992;28;20078;-72
2022/05/26 08:44:18;;;;;;;3.70;0.52;;;17.30;99.90;;;;;;5054767;28;20033;-73
2022/05/26 08:46:55;;;;;;;1.25;0.43;;;17.00;99.90;;;;;;5054862;28;20044;-83
2022/05/26 08:49:28;;;;;;;0.43;0.43;;;16.90;99.90;;;;;;5055046;28;20059;-82
2022/05/26 08:52:01;;;;;;;1.67;0.43;;;17.00;99.90;;;;;;5055116;28;20040;-82
2022/05/26 08:54:50;;;;;;;1.65;0.57;;;17.10;99.90;;;;;;5071664;28;20040;-82
2022/05/26 08:57:24;;;;;;;0.93;0.32;;;17.30;99.90;;;;;;5055331;28;20518;-83
2022/05/26 08:59:51;;;;;;;3.40;0.82;;;17.20;99.90;;;;;;5054898;28;20045;-82
2022/05/26 09:02:25;;;;;;;0.35;0.30;;;17.30;99.90;;;;;;5054781;28;20036;-77
2022/05/26 09:04:52;;;;;;;0.73;0.30;;;17.30;99.90;;;;;;5054977;28;20048;-76
2022/05/26 09:13:08;;;;;;;0.32;0.32;;;17.50;99.90;;;;;;5057657;28;20045;-79
2022/05/26 09:15:36;;;;;;;1.58;0.40;;;17.60;99.90;;;;;;5058534;28;20097;-76
2022/05/26 09:18:17;;;;;;;2.63;0.40;;;17.40;99.90;;;;;;5058517;28;20041;-78
2022/05/26 09:20:45;;;;;;;0.98;0.35;;;17.20;99.90;;;;;;5058727;28;20033;-77
2022/05/26 09:23:13;;;;;;;2.78;0.40;;;17.20;99.90;;;;;;5058232;28;20043;-78
2022/05/26 09:26:07;;;;;;;0.40;0.40;;;17.40;99.90;;;;;;5074923;28;20419;-77
2022/05/26 09:28:48;;;;;;;0.50;0.30;;;17.40;99.90;;;;;;5074947;28;20048;-77
2022/05/26 09:31:25;;;;;;;1.48;0.40;;;17.30;99.90;;;;;;5041963;28;20441;-76
2022/05/26 09:34:17;;;;;;;0.90;0.50;;;17.30;99.90;;;;;;5058399;28;20044;-78
2022/05/26 09:36:44;;;;;;;0.90;0.35;;;17.40;99.90;;;;;;5074812;28;20131;-78
2022/05/26 09:39:11;;;;;;;1.17;0.35;;;17.30;99.90;;;;;;5058059;28;20047;-78
2022/05/26 09:41:46;;;;;;;0.57;0.38;;;17.30;99.90;;;;;;5058234;28;20446;-78
2022/05/26 09:44:34;;;;;;;1.40;0.52;;;17.40;99.90;;;;;;5057999;28;20032;-78
2022/05/26 09:47:04;;;;;;;0.43;0.28;;;17.50;99.90;;;;;;5058006;28;20048;-79
2022/05/26 09:49:37;;;;;;;0.65;0.57;;;17.60;99.90;;;;;;5057986;28;20048;-78
2022/05/26 09:52:09;;;;;;;1.38;0.47;;;17.60;99.90;;;;;;5057953;28;20044;-78
2022/05/26 09:54:35;;;;;;;2.72;0.40;;;17.70;99.90;;;;;;5057854;28;20098;-78
2022/05/26 09:57:16;;;;;;;1.52;0.40;;;17.70;99.90;;;;;;5057733;28;20040;-78
2022/05/26 09:59:42;;;;;;;3.00;0.63;;;17.80;99.90;;;;;;5057597;28;20044;-78
2022/05/26 10:02:30;;;;;;;0.55;0.30;;;17.80;99.90;;;;;;5058014;28;20555;-78
2022/05/26 10:05:09;;;;;;;0.20;0.20;;;17.80;99.90;;;;;;5057792;28;20392;-77
2022/05/26 10:07:34;;;;;;;0.93;0.30;;;17.80;99.90;;;;;;5057435;28;20032;-78
2022/05/26 10:10:24;;;;;;;1.13;0.30;;;17.60;99.90;;;;;;5057574;28;20484;-80
2022/05/26 10:13:08;;;;;;;1.10;0.30;;;17.80;99.90;;;;;;5057316;28;20047;-81
2022/05/26 10:15:58;;;;;;;1.85;0.40;;;18.00;99.90;;;;;;5057347;28;20050;-82
2022/05/26 10:18:38;;;;;;;1.23;0.32;;;18.10;99.90;;;;;;5073876;28;20051;-79
2022/05/26 10:21:42;;;;;;;0.10;0.10;;;18.30;99.90;;;;;;5057318;28;20099;-82
2022/05/26 10:24:49;;;;;;;1.42;0.50;;;18.30;99.90;;;;;;5072900;28;20075;-83
2022/05/26 10:27:39;;;;;;;0.68;0.25;;;18.30;99.90;;;;;;5057198;28;20048;-84
2022/05/26 10:30:23;;;;;;;1.45;0.30;;;18.20;99.90;;;;;;5073840;28;20128;-83
2022/05/26 10:33:19;;;;;;;1.45;0.45;;;18.20;99.90;;;;;;5057355;28;20487;-79
2022/05/26 10:36:15;;;;;;;0.40;0.22;;;18.20;99.90;;;;;;5073936;28;20471;-81
2022/05/26 10:39:13;;;;;;;4.32;1.02;;;18.20;99.90;;;;;;5073587;28;20137;-79
2022/05/26 10:41:49;;;;;;;0.65;0.38;;;18.20;99.90;;;;;;5028524;28;20044;-80
2022/05/26 10:44:18;;;;;;;1.55;0.55;;;18.00;99.90;;;;;;5056803;28;20036;-74
2022/05/26 10:47:32;;;;;;;2.05;0.60;;;18.00;99.90;;;;;;5056861;28;20072;-79
2022/05/26 10:50:25;;;;;;;0.52;0.30;;;18.00;99.90;;;;;;5027127;28;20056;-78
2022/05/26 10:53:06;;;;;;;0.70;0.50;;;18.10;99.90;;;;;;5056139;28;20040;-79
2022/05/26 10:55:48;;;;;;;0.20;0.20;;;18.20;99.90;;;;;;5057081;28;20415;-79
2022/05/26 10:58:37;;;;;;;0.20;0.20;;;18.40;99.90;;;;;;5056529;28;20094;-78
2022/05/26 11:01:22;;;;;;;0.45;0.30;;;18.20;99.90;;;;;;5056813;28;20036;-79
2022/05/26 11:03:51;;;;;;;0.40;0.40;;;18.00;99.90;;;;;;5056481;28;20042;-79
2022/05/26 11:06:30;;;;;;;0.30;0.30;;;17.90;99.90;;;;;;5056381;28;20044;-79
2022/05/26 11:09:34;;;;;;;1.95;0.30;;;18.10;99.90;;;;;;5056280;28;20123;-79
2022/05/26 11:12:04;;;;;;;0.93;0.60;;;18.30;99.90;;;;;;5056329;28;20048;-78
2022/05/26 11:17:46;;;;;;;1.58;0.52;;;18.20;99.90;;;;;;5056250;28;20055;-82
2022/05/26 11:20:23;;;;;;;3.03;0.90;;;18.00;99.90;;;;;;5056562;28;20434;-80
2022/05/26 11:22:51;;;;;;;0.98;0.57;;;17.90;99.90;;;;;;5039520;28;20094;-81
2022/05/26 11:25:32;;;;;;;0.38;0.30;;;17.80;99.90;;;;;;5055982;28;20057;-81
2022/05/26 11:28:30;;;;;;;2.15;0.47;;;17.80;99.90;;;;;;5056138;28;20041;-80
2022/05/26 11:37:28;;;;;;;3.00;0.75;;;17.60;99.90;;;;;;5055756;28;20087;-81
2022/05/26 11:40:02;;;;;;;0.50;0.45;;;17.50;99.90;;;;;;5073377;28;20052;-79
2022/05/26 11:42:34;;;;;;;0.95;0.73;;;17.50;99.90;;;;;;5056045;28;20594;-76
2022/05/26 11:45:19;;;;;;;0.40;0.40;;;17.70;99.90;;;;;;5055864;28;20044;-80
2022/05/26 11:47:53;;;;;;;1.02;0.63;;;18.10;99.90;;;;;;5072401;28;20125;-80
2022/05/26 11:50:42;;;;;;;6.65;0.90;;;17.80;99.90;;;;;;5055746;28;20067;-80
2022/05/26 11:53:13;;;;;;;5.38;1.05;;;17.70;99.90;;;;;;5055858;28;20032;-82
2022/05/26 11:55:52;;;;;;;2.80;0.63;;;17.60;99.90;;;;;;5055616;28;20399;-81
2022/05/26 11:58:34;;;;;;;0.63;0.50;;;17.50;99.90;;;;;;5072330;28;20097;-80
2022/05/26 12:01:33;;;;;;;0.40;0.40;;;17.60;99.90;;;;;;5055853;28;20036;-80
2022/05/26 12:04:14;;;;;;;0.60;0.50;;;17.70;99.90;;;;;;5055356;28;20036;-80
2022/05/26 12:06:51;;;;;;;1.73;0.90;;;17.80;99.90;;;;;;5055646;28;20071;-81
2022/05/26 12:09:29;;;;;;;1.45;0.60;;;17.70;99.90;;;;;;5055227;28;20056;-82
2022/05/26 12:12:08;;;;;;;0.45;0.45;;;17.70;99.90;;;;;;5055220;28;20040;-81
2022/05/26 12:15:28;;;;;;;1.55;1.45;;;17.80;99.90;;;;;;5055385;28;20564;-82
2022/05/26 12:17:55;;;;;;;0.68;0.65;;;17.90;99.90;;;;;;5042266;28;20059;-81
2022/05/26 12:20:21;;;;;;;0.90;0.43;;;18.00;99.90;;;;;;5055065;28;20121;-81
2022/05/26 12:22:47;;;;;;;0.68;0.50;;;18.20;99.90;;;;;;5055322;28;20045;-81
2022/05/26 12:25:32;;;;;;;0.60;0.60;;;18.20;99.90;;;;;;5054922;28;20060;-82
2022/05/26 12:28:10;;;;;;;0.68;0.47;;;18.20;99.90;;;;;;5055368;28;20399;-79
2022/05/26 12:30:45;;;;;;;0.77;0.50;;;18.20;99.90;;;;;;5055219;28;20526;-78
2022/05/26 12:33:20;;;;;;;1.55;0.52;;;18.10;99.90;;;;;;5054941;28;20090;-82
2022/05/26 12:36:32;;;;;;;1.27;0.63;;;18.00;99.90;;;;;;5072489;28;20068;-82
2022/05/26 12:39:01;;;;;;;3.63;0.70;;;18.20;99.90;;;;;;5038123;28;20048;-82
2022/05/26 12:42:05;;;;;;;0.90;0.60;;;18.30;99.90;;;;;;5055211;28;20515;-81
2022/05/26 12:44:56;;;;;;;1.02;0.60;;;18.20;99.90;;;;;;5035360;28;20143;-83
2022/05/26 12:47:38;;;;;;;1.13;0.60;;;18.00;99.90;;;;;;5059080;28;20041;-85
2022/05/26 12:50:16;;;;;;;1.95;0.60;;;18.00;99.90;;;;;;5061908;28;20396;-80
2022/05/26 12:52:47;;;;;;;3.05;0.50;;;18.00;99.90;;;;;;5061795;28;20044;-81
2022/05/26 12:55:31;;;;;;;0.70;0.40;;;17.90;99.90;;;;;;5061432;28;20044;-81
2022/05/26 12:58:06;;;;;;;1.02;0.68;;;17.90;99.90;;;;;;5061361;28;20044;-81
2022/05/26 13:00:44;;;;;;;0.35;0.35;;;17.90;99.90;;;;;;5061415;28;20127;-81
2022/05/26 13:03:12;;;;;;;1.38;0.60;;;17.90;99.90;;;;;;5061330;28;20067;-80
2022/05/26 13:05:44;;;;;;;1.48;0.60;;;18.00;99.90;;;;;;5061672;28;20389;-80
2022/05/26 13:08:19;;;;;;;0.85;0.45;;;18.00;99.90;;;;;;5045042;28;20044;-81
2022/05/26 13:10:47;;;;;;;5.18;0.90;;;18.10;99.90;;;;;;5061369;28;20127;-80
2022/05/26 13:13:42;;;;;;;0.75;0.60;;;18.30;99.90;;;;;;5061369;28;20047;-81
2022/05/26 13:16:38;;;;;;;3.70;0.50;;;18.40;99.90;;;;;;5061769;28;20036;-80
2022/05/26 13:19:22;;;;;;;1.20;0.50;;;18.50;99.90;;;;;;5043390;28;20063;-81
2022/05/26 13:21:51;;;;;;;1.40;0.50;;;18.60;99.90;;;;;;5061367;28;20040;-81
2022/05/26 13:24:29;;;;;;;0.93;0.47;;;18.70;99.90;;;;;;5061092;28;20058;-79
2022/05/26 13:27:00;;;;;;;2.15;0.40;;;18.60;99.90;;;;;;5061200;28;20063;-79
2022/05/26 13:29:28;;;;;;;1.33;0.50;;;18.50;99.90;;;;;;5061001;28;20040;-77
2022/05/26 13:34:50;;;;;;;4.15;0.50;;;18.30;99.90;;;;;;5061200;28;20041;-82
2022/05/26 13:37:19;;;;;;;1.10;0.70;;;18.30;99.90;;;;;;5061027;28;20118;-81
2022/05/26 13:40:00;;;;;;;1.08;0.45;;;18.20;99.90;;;;;;5061088;28;20044;-81
2022/05/26 13:42:26;;;;;;;0.77;0.57;;;18.20;99.90;;;;;;5061275;28;20387;-81
2022/05/26 13:44:52;;;;;;;0.90;0.57;;;18.10;99.90;;;;;;5060985;28;20127;-82
2022/05/26 13:47:17;;;;;;;0.40;0.30;;;18.00;99.90;;;;;;5044658;28;20128;-81
2022/05/26 13:50:00;;;;;;;1.30;0.40;;;18.10;99.90;;;;;;5044499;28;20047;-81
2022/05/26 13:52:28;;;;;;;1.55;0.43;;;18.20;99.90;;;;;;5060838;28;20110;-82
2022/05/26 13:55:00;;;;;;;1.30;0.55;;;18.20;99.90;;;;;;5060629;28;20132;-81
2022/05/26 13:57:42;;;;;;;1.42;0.60;;;18.20;99.90;;;;;;5043951;28;20503;-80
2022/05/26 14:00:14;;;;;;;0.60;0.50;;;17.80;99.90;;;;;;5057601;28;20135;-82
2022/05/26 14:02:50;;;;;;;1.45;0.35;;;18.20;99.90;;;;;;5074202;28;20043;-81